sensor_id;sensor_type;location;lat;lon;timestamp;pressure;altitude;pressure_sealevel;temperature;humidity
26865;BME280;40618;51.166;10.322;2023-05-16T00:01:58;97077.13;;;12.63;63.00
26865;BME280;40618;51.166;10.322;2023-05-16T00:04:24;97075.47;;;12.62;63.39
26865;BME280;40618;51.166;10.322;2023-05-16T00:06:50;97071.44;;;12.55;63.65
26865;BME280;40618;51.166;10.322;2023-05-16T00:09:15;97072.28;;;12.55;63.50
26865;BME280;40618;51.166;10.322;2023-05-16T00:11:41;97064.75;;;12.49;63.62
26865;BME280;40618;51.166;10.322;2023-05-16T00:14:07;97069.69;;;12.55;63.92
26865;BME280;40618;51.166;10.322;2023-05-16T00:16:32;97065.41;;;12.54;63.76
26865;BME280;40618;51.166;10.322;2023-05-16T00:19:01;97062.94;;;12.51;64.02
26865;BME280;40618;51.166;10.322;2023-05-16T00:21:27;97065.56;;;12.51;64.03
26865;BME280;40618;51.166;10.322;2023-05-16T00:23:52;97064.06;;;12.45;63.85
26865;BME280;40618;51.166;10.322;2023-05-16T00:26:18;97077.31;;;12.39;63.99
26865;BME280;40618;51.166;10.322;2023-05-16T00:28:44;97085.38;;;12.33;64.19
26865;BME280;40618;51.166;10.322;2023-05-16T00:31:09;97082.00;;;12.31;64.02
26865;BME280;40618;51.166;10.322;2023-05-16T00:33:35;97086.34;;;12.30;64.37
26865;BME280;40618;51.166;10.322;2023-05-16T00:36:00;97096.00;;;12.27;64.57
26865;BME280;40618;51.166;10.322;2023-05-16T00:38:26;97086.53;;;12.26;64.62
26865;BME280;40618;51.166;10.322;2023-05-16T00:40:52;97092.50;;;12.28;64.45
26865;BME280;40618;51.166;10.322;2023-05-16T00:43:17;97092.75;;;12.22;64.62
26865;BME280;40618;51.166;10.322;2023-05-16T00:45:44;97084.97;;;12.22;64.57
26865;BME280;40618;51.166;10.322;2023-05-16T00:48:11;97085.75;;;12.24;64.82
26865;BME280;40618;51.166;10.322;2023-05-16T00:50:38;97083.75;;;12.30;65.01
26865;BME280;40618;51.166;10.322;2023-05-16T00:53:04;97079.47;;;12.29;65.11
26865;BME280;40618;51.166;10.322;2023-05-16T00:55:30;97080.28;;;12.30;65.09
26865;BME280;40618;51.166;10.322;2023-05-16T00:57:57;97087.03;;;12.34;65.17
26865;BME280;40618;51.166;10.322;2023-05-16T01:00:24;97087.25;;;12.29;64.99
26865;BME280;40618;51.166;10.322;2023-05-16T01:02:50;97085.69;;;12.25;65.43
26865;BME280;40618;51.166;10.322;2023-05-16T01:05:18;97085.63;;;12.06;65.18
26865;BME280;40618;51.166;10.322;2023-05-16T01:07:44;97083.34;;;11.98;65.48
26865;BME280;40618;51.166;10.322;2023-05-16T01:10:10;97084.22;;;11.99;65.37
26865;BME280;40618;51.166;10.322;2023-05-16T01:15:27;97087.31;;;11.85;65.49
26865;BME280;40618;51.166;10.322;2023-05-16T01:18:07;97084.91;;;11.80;65.57
26865;BME280;40618;51.166;10.322;2023-05-16T01:21:18;97099.00;;;11.75;65.62
26865;BME280;40618;51.166;10.322;2023-05-16T01:24:13;97094.91;;;11.69;65.69
26865;BME280;40618;51.166;10.322;2023-05-16T01:26:49;97097.44;;;11.71;65.98
26865;BME280;40618;51.166;10.322;2023-05-16T01:29:16;97099.13;;;11.72;65.72
26865;BME280;40618;51.166;10.322;2023-05-16T01:31:43;97096.81;;;11.64;65.85
26865;BME280;40618;51.166;10.322;2023-05-16T01:34:09;97096.22;;;11.57;65.68
26865;BME280;40618;51.166;10.322;2023-05-16T01:36:46;97096.09;;;11.60;66.12
26865;BME280;40618;51.166;10.322;2023-05-16T01:40:02;97107.13;;;11.65;66.16
26865;BME280;40618;51.166;10.322;2023-05-16T01:42:18;97099.41;;;11.64;66.05
26865;BME280;40618;51.166;10.322;2023-05-16T01:48:12;97110.75;;;11.61;65.74
26865;BME280;40618;51.166;10.322;2023-05-16T01:50:43;97103.16;;;11.57;65.85
26865;BME280;40618;51.166;10.322;2023-05-16T01:53:16;97112.03;;;11.51;66.04
26865;BME280;40618;51.166;10.322;2023-05-16T01:55:51;97124.34;;;11.46;65.92
26865;BME280;40618;51.166;10.322;2023-05-16T01:58:20;97119.31;;;11.41;66.11
26865;BME280;40618;51.166;10.322;2023-05-16T02:00:52;97113.41;;;11.38;66.04
26865;BME280;40618;51.166;10.322;2023-05-16T02:03:18;97116.13;;;11.34;66.29
26865;BME280;40618;51.166;10.322;2023-05-16T02:05:43;97120.47;;;11.34;66.11
26865;BME280;40618;51.166;10.322;2023-05-16T02:08:09;97117.75;;;11.37;65.79
26865;BME280;40618;51.166;10.322;2023-05-16T02:10:35;97122.16;;;11.35;66.28
26865;BME280;40618;51.166;10.322;2023-05-16T02:13:00;97126.09;;;11.22;66.46
26865;BME280;40618;51.166;10.322;2023-05-16T02:15:26;97122.97;;;11.13;66.17
26865;BME280;40618;51.166;10.322;2023-05-16T02:17:51;97118.91;;;11.06;66.77
26865;BME280;40618;51.166;10.322;2023-05-16T02:20:17;97119.53;;;11.13;66.19
26865;BME280;40618;51.166;10.322;2023-05-16T02:22:43;97119.53;;;11.13;66.36
26865;BME280;40618;51.166;10.322;2023-05-16T02:25:11;97110.28;;;11.06;65.87
26865;BME280;40618;51.166;10.322;2023-05-16T02:27:36;97111.75;;;11.13;66.67
26865;BME280;40618;51.166;10.322;2023-05-16T02:30:02;97118.63;;;11.14;66.71
26865;BME280;40618;51.166;10.322;2023-05-16T02:32:30;97116.00;;;11.15;66.47
26865;BME280;40618;51.166;10.322;2023-05-16T02:34:56;97115.81;;;11.20;66.63
26865;BME280;40618;51.166;10.322;2023-05-16T02:37:22;97112.94;;;11.28;66.60
26865;BME280;40618;51.166;10.322;2023-05-16T02:39:47;97122.63;;;11.23;66.41
26865;BME280;40618;51.166;10.322;2023-05-16T02:42:13;97126.22;;;11.18;66.23
26865;BME280;40618;51.166;10.322;2023-05-16T02:44:39;97132.38;;;11.16;66.60
26865;BME280;40618;51.166;10.322;2023-05-16T02:47:05;97134.84;;;11.19;66.53
26865;BME280;40618;51.166;10.322;2023-05-16T02:49:31;97141.53;;;11.25;66.41
26865;BME280;40618;51.166;10.322;2023-05-16T02:51:56;97142.00;;;11.36;66.29
26865;BME280;40618;51.166;10.322;2023-05-16T02:54:22;97148.75;;;11.40;66.67
26865;BME280;40618;51.166;10.322;2023-05-16T02:56:47;97141.69;;;11.44;66.75
26865;BME280;40618;51.166;10.322;2023-05-16T02:59:13;97153.31;;;11.33;66.59
26865;BME280;40618;51.166;10.322;2023-05-16T03:01:39;97151.56;;;11.34;66.02
26865;BME280;40618;51.166;10.322;2023-05-16T03:04:05;97158.34;;;11.14;66.57
26865;BME280;40618;51.166;10.322;2023-05-16T03:06:31;97158.81;;;11.02;66.33
26865;BME280;40618;51.166;10.322;2023-05-16T03:08:56;97157.75;;;10.82;66.21
26865;BME280;40618;51.166;10.322;2023-05-16T03:11:22;97156.41;;;10.72;66.84
26865;BME280;40618;51.166;10.322;2023-05-16T03:13:49;97153.69;;;10.75;66.51
26865;BME280;40618;51.166;10.322;2023-05-16T03:16:15;97155.16;;;10.82;67.07
26865;BME280;40618;51.166;10.322;2023-05-16T03:18:41;97151.69;;;10.83;66.82
26865;BME280;40618;51.166;10.322;2023-05-16T03:21:07;97153.81;;;10.72;66.45
26865;BME280;40618;51.166;10.322;2023-05-16T03:23:33;97160.84;;;10.69;67.26
26865;BME280;40618;51.166;10.322;2023-05-16T03:25:58;97162.91;;;10.59;66.63
26865;BME280;40618;51.166;10.322;2023-05-16T03:28:26;97159.69;;;10.52;66.87
26865;BME280;40618;51.166;10.322;2023-05-16T03:30:51;97162.44;;;10.47;66.56
26865;BME280;40618;51.166;10.322;2023-05-16T03:33:17;97156.41;;;10.47;67.34
26865;BME280;40618;51.166;10.322;2023-05-16T03:35:43;97166.75;;;10.47;66.78
26865;BME280;40618;51.166;10.322;2023-05-16T03:38:10;97173.69;;;10.46;67.35
26865;BME280;40618;51.166;10.322;2023-05-16T03:40:35;97164.63;;;10.33;67.43
26865;BME280;40618;51.166;10.322;2023-05-16T03:43:01;97173.09;;;10.38;67.45
26865;BME280;40618;51.166;10.322;2023-05-16T03:45:28;97178.28;;;10.38;67.11
26865;BME280;40618;51.166;10.322;2023-05-16T03:47:54;97166.22;;;10.37;67.47
26865;BME280;40618;51.166;10.322;2023-05-16T03:50:20;97174.00;;;10.37;67.19
26865;BME280;40618;51.166;10.322;2023-05-16T03:52:46;97184.34;;;10.37;67.46
26865;BME280;40618;51.166;10.322;2023-05-16T03:55:12;97180.75;;;10.41;67.72
26865;BME280;40618;51.166;10.322;2023-05-16T03:57:39;97185.75;;;10.47;67.74
26865;BME280;40618;51.166;10.322;2023-05-16T04:00:07;97197.00;;;10.46;67.84
26865;BME280;40618;51.166;10.322;2023-05-16T04:02:33;97193.47;;;10.49;67.98
26865;BME280;40618;51.166;10.322;2023-05-16T04:04:58;97196.22;;;10.44;67.03
26865;BME280;40618;51.166;10.322;2023-05-16T04:07:24;97204.97;;;10.40;67.40
26865;BME280;40618;51.166;10.322;2023-05-16T04:09:50;97204.88;;;10.43;67.54
26865;BME280;40618;51.166;10.322;2023-05-16T04:12:16;97214.34;;;10.43;67.47
26865;BME280;40618;51.166;10.322;2023-05-16T04:14:42;97211.75;;;10.44;67.35
26865;BME280;40618;51.166;10.322;2023-05-16T04:17:08;97212.69;;;10.42;67.45
26865;BME280;40618;51.166;10.322;2023-05-16T04:19:34;97221.22;;;10.44;68.05
26865;BME280;40618;51.166;10.322;2023-05-16T04:22:00;97216.09;;;10.42;67.38
26865;BME280;40618;51.166;10.322;2023-05-16T04:24:25;97229.09;;;10.41;67.70
26865;BME280;40618;51.166;10.322;2023-05-16T04:26:53;97226.69;;;10.35;67.48
26865;BME280;40618;51.166;10.322;2023-05-16T04:29:19;97228.28;;;10.40;68.06
26865;BME280;40618;51.166;10.322;2023-05-16T04:31:46;97223.22;;;10.36;67.49
26865;BME280;40618;51.166;10.322;2023-05-16T04:34:12;97232.31;;;10.21;67.80
26865;BME280;40618;51.166;10.322;2023-05-16T04:36:38;97227.19;;;10.19;67.89
26865;BME280;40618;51.166;10.322;2023-05-16T04:39:04;97229.06;;;10.14;67.65
26865;BME280;40618;51.166;10.322;2023-05-16T04:41:30;97243.94;;;10.07;67.67
26865;BME280;40618;51.166;10.322;2023-05-16T04:43:58;97245.03;;;10.00;67.59
26865;BME280;40618;51.166;10.322;2023-05-16T04:46:25;97249.69;;;9.89;67.38
26865;BME280;40618;51.166;10.322;2023-05-16T04:48:50;97249.88;;;9.82;67.91
26865;BME280;40618;51.166;10.322;2023-05-16T04:51:16;97255.91;;;9.83;68.50
26865;BME280;40618;51.166;10.322;2023-05-16T04:53:42;97258.53;;;9.81;67.66
26865;BME280;40618;51.166;10.322;2023-05-16T04:56:07;97263.00;;;9.76;68.11
26865;BME280;40618;51.166;10.322;2023-05-16T04:58:33;97263.00;;;9.76;68.11
26865;BME280;40618;51.166;10.322;2023-05-16T05:00:58;97264.75;;;9.74;67.70
26865;BME280;40618;51.166;10.322;2023-05-16T05:03:24;97270.75;;;9.76;68.38
26865;BME280;40618;51.166;10.322;2023-05-16T05:05:50;97272.31;;;9.82;67.82
26865;BME280;40618;51.166;10.322;2023-05-16T05:08:16;97274.66;;;9.90;68.34
26865;BME280;40618;51.166;10.322;2023-05-16T05:10:42;97273.19;;;9.81;68.08
26865;BME280;40618;51.166;10.322;2023-05-16T05:13:10;97274.94;;;9.80;68.30
26865;BME280;40618;51.166;10.322;2023-05-16T05:15:35;97274.16;;;9.77;68.21
26865;BME280;40618;51.166;10.322;2023-05-16T05:18:01;97279.25;;;9.80;68.31
26865;BME280;40618;51.166;10.322;2023-05-16T05:20:26;97287.78;;;9.83;68.26
26865;BME280;40618;51.166;10.322;2023-05-16T05:22:52;97276.44;;;9.88;68.18
26865;BME280;40618;51.166;10.322;2023-05-16T05:25:17;97293.44;;;9.96;68.62
26865;BME280;40618;51.166;10.322;2023-05-16T05:27:43;97294.06;;;10.03;68.40
26865;BME280;40618;51.166;10.322;2023-05-16T05:30:09;97306.88;;;10.08;68.43
26865;BME280;40618;51.166;10.322;2023-05-16T05:32:35;97308.47;;;10.12;68.15
26865;BME280;40618;51.166;10.322;2023-05-16T05:35:01;97311.91;;;10.12;68.47
26865;BME280;40618;51.166;10.322;2023-05-16T05:37:28;97325.66;;;10.14;68.54
26865;BME280;40618;51.166;10.322;2023-05-16T05:39:54;97320.56;;;10.11;68.08
26865;BME280;40618;51.166;10.322;2023-05-16T05:42:20;97322.34;;;10.09;68.42
26865;BME280;40618;51.166;10.322;2023-05-16T05:44:46;97318.78;;;10.13;68.58
26865;BME280;40618;51.166;10.322;2023-05-16T05:47:12;97324.75;;;10.15;68.64
26865;BME280;40618;51.166;10.322;2023-05-16T05:49:39;97323.50;;;9.99;68.56
26865;BME280;40618;51.166;10.322;2023-05-16T05:52:05;97317.69;;;9.92;68.68
26865;BME280;40618;51.166;10.322;2023-05-16T05:54:30;97326.34;;;9.91;68.37
26865;BME280;40618;51.166;10.322;2023-05-16T05:56:57;97333.44;;;9.85;68.36
26865;BME280;40618;51.166;10.322;2023-05-16T05:59:22;97330.19;;;9.78;68.65
26865;BME280;40618;51.166;10.322;2023-05-16T06:01:49;97328.34;;;9.81;68.71
26865;BME280;40618;51.166;10.322;2023-05-16T06:04:18;97330.75;;;9.88;68.80
26865;BME280;40618;51.166;10.322;2023-05-16T06:06:44;97325.72;;;9.83;69.10
26865;BME280;40618;51.166;10.322;2023-05-16T06:09:10;97329.00;;;9.88;69.01
26865;BME280;40618;51.166;10.322;2023-05-16T06:11:38;97340.00;;;9.95;68.80
26865;BME280;40618;51.166;10.322;2023-05-16T06:14:03;97339.13;;;9.96;68.88
26865;BME280;40618;51.166;10.322;2023-05-16T06:16:29;97338.47;;;9.89;68.73
26865;BME280;40618;51.166;10.322;2023-05-16T06:18:55;97349.94;;;9.80;68.49
26865;BME280;40618;51.166;10.322;2023-05-16T06:21:21;97343.31;;;9.70;68.60
26865;BME280;40618;51.166;10.322;2023-05-16T06:23:46;97345.09;;;9.68;68.68
26865;BME280;40618;51.166;10.322;2023-05-16T06:26:12;97344.47;;;9.60;69.05
26865;BME280;40618;51.166;10.322;2023-05-16T06:28:37;97353.03;;;9.62;68.90
26865;BME280;40618;51.166;10.322;2023-05-16T06:31:03;97358.28;;;9.59;68.65
26865;BME280;40618;51.166;10.322;2023-05-16T06:33:28;97358.19;;;9.62;68.76
26865;BME280;40618;51.166;10.322;2023-05-16T06:35:54;97358.91;;;9.67;68.93
26865;BME280;40618;51.166;10.322;2023-05-16T06:38:20;97365.59;;;9.74;68.61
26865;BME280;40618;51.166;10.322;2023-05-16T06:40:45;97356.09;;;9.76;69.11
26865;BME280;40618;51.166;10.322;2023-05-16T06:43:11;97367.94;;;9.83;69.15
26865;BME280;40618;51.166;10.322;2023-05-16T06:45:37;97370.53;;;9.83;68.06
26865;BME280;40618;51.166;10.322;2023-05-16T06:48:06;97366.47;;;9.75;69.04
26865;BME280;40618;51.166;10.322;2023-05-16T06:50:32;97373.50;;;9.70;68.03
26865;BME280;40618;51.166;10.322;2023-05-16T06:53:00;97375.28;;;9.68;68.47
26865;BME280;40618;51.166;10.322;2023-05-16T06:55:25;97377.91;;;9.66;69.65
26865;BME280;40618;51.166;10.322;2023-05-16T06:57:51;97379.47;;;9.72;69.30
26865;BME280;40618;51.166;10.322;2023-05-16T07:00:17;97386.19;;;9.79;69.13
26865;BME280;40618;51.166;10.322;2023-05-16T07:02:43;97386.13;;;9.80;69.42
26865;BME280;40618;51.166;10.322;2023-05-16T07:05:08;97389.69;;;9.76;68.83
26865;BME280;40618;51.166;10.322;2023-05-16T07:07:34;97383.78;;;9.71;68.93
26865;BME280;40618;51.166;10.322;2023-05-16T07:10:00;97384.63;;;9.73;69.63
26865;BME280;40618;51.166;10.322;2023-05-16T07:12:26;97382.19;;;9.67;68.73
26865;BME280;40618;51.166;10.322;2023-05-16T07:14:52;97384.69;;;9.70;69.13
26865;BME280;40618;51.166;10.322;2023-05-16T07:17:17;97394.19;;;9.70;69.34
26865;BME280;40618;51.166;10.322;2023-05-16T07:19:43;97394.31;;;9.65;69.01
26865;BME280;40618;51.166;10.322;2023-05-16T07:22:08;97397.75;;;9.65;69.75
26865;BME280;40618;51.166;10.322;2023-05-16T07:24:35;97395.13;;;9.67;69.36
26865;BME280;40618;51.166;10.322;2023-05-16T07:27:00;97393.16;;;9.75;69.27
26865;BME280;40618;51.166;10.322;2023-05-16T07:29:26;97398.19;;;9.80;69.73
26865;BME280;40618;51.166;10.322;2023-05-16T07:31:51;97394.88;;;9.76;69.85
26865;BME280;40618;51.166;10.322;2023-05-16T07:34:17;97393.47;;;9.64;69.30
26865;BME280;40618;51.166;10.322;2023-05-16T07:36:43;97403.97;;;9.58;69.21
26865;BME280;40618;51.166;10.322;2023-05-16T07:39:08;97410.28;;;9.48;69.50
26865;BME280;40618;51.166;10.322;2023-05-16T07:41:34;97413.03;;;9.40;69.90
26865;BME280;40618;51.166;10.322;2023-05-16T07:43:59;97414.72;;;9.43;69.82
26865;BME280;40618;51.166;10.322;2023-05-16T07:46:25;97412.84;;;9.48;69.48
26865;BME280;40618;51.166;10.322;2023-05-16T07:48:51;97411.09;;;9.50;69.33
26865;BME280;40618;51.166;10.322;2023-05-16T07:51:16;97411.94;;;9.51;68.97
26865;BME280;40618;51.166;10.322;2023-05-16T07:53:42;97406.91;;;9.44;69.19
26865;BME280;40618;51.166;10.322;2023-05-16T07:56:07;97414.00;;;9.36;69.06
26865;BME280;40618;51.166;10.322;2023-05-16T07:58:33;97413.03;;;9.40;69.57
26865;BME280;40618;51.166;10.322;2023-05-16T08:00:59;97412.75;;;9.51;69.78
26865;BME280;40618;51.166;10.322;2023-05-16T08:03:25;97410.97;;;9.55;69.96
26865;BME280;40618;51.166;10.322;2023-05-16T08:05:50;97417.56;;;9.67;68.96
26865;BME280;40618;51.166;10.322;2023-05-16T08:08:17;97417.59;;;9.65;68.89
26865;BME280;40618;51.166;10.322;2023-05-16T08:10:42;97424.53;;;9.63;68.59
26865;BME280;40618;51.166;10.322;2023-05-16T08:13:08;97427.88;;;9.67;68.93
26865;BME280;40618;51.166;10.322;2023-05-16T08:15:33;97426.00;;;9.73;69.09
26865;BME280;40618;51.166;10.322;2023-05-16T08:18:00;97431.81;;;9.80;68.76
26865;BME280;40618;51.166;10.322;2023-05-16T08:20:26;97433.69;;;9.75;69.26
26865;BME280;40618;51.166;10.322;2023-05-16T08:22:52;97437.31;;;9.69;68.48
26865;BME280;40618;51.166;10.322;2023-05-16T08:25:18;97443.34;;;9.68;68.83
26865;BME280;40618;51.166;10.322;2023-05-16T08:27:45;97443.31;;;9.70;69.04
26865;BME280;40618;51.166;10.322;2023-05-16T08:30:13;97455.31;;;9.72;68.67
26865;BME280;40618;51.166;10.322;2023-05-16T08:32:39;97458.97;;;9.65;69.07
26865;BME280;40618;51.166;10.322;2023-05-16T08:35:05;97454.66;;;9.64;68.14
26865;BME280;40618;51.166;10.322;2023-05-16T08:37:31;97469.25;;;9.67;68.82
26865;BME280;40618;51.166;10.322;2023-05-16T08:39:57;97462.25;;;9.70;68.63
26865;BME280;40618;51.166;10.322;2023-05-16T08:42:23;97469.13;;;9.71;68.52
26865;BME280;40618;51.166;10.322;2023-05-16T08:44:49;97461.69;;;9.59;68.60
26865;BME280;40618;51.166;10.322;2023-05-16T08:47:18;97471.25;;;9.57;68.38
26865;BME280;40618;51.166;10.322;2023-05-16T08:49:50;97468.66;;;9.57;68.44
26865;BME280;40618;51.166;10.322;2023-05-16T08:52:20;97471.09;;;9.61;68.51
26865;BME280;40618;51.166;10.322;2023-05-16T08:54:49;97465.09;;;9.59;68.37
26865;BME280;40618;51.166;10.322;2023-05-16T08:57:15;97469.44;;;9.59;68.61
26865;BME280;40618;51.166;10.322;2023-05-16T08:59:42;97465.19;;;9.56;68.17
26865;BME280;40618;51.166;10.322;2023-05-16T09:02:09;97473.91;;;9.52;68.34
26865;BME280;40618;51.166;10.322;2023-05-16T09:04:36;97464.31;;;9.57;68.27
26865;BME280;40618;51.166;10.322;2023-05-16T09:07:02;97470.41;;;9.55;68.63
26865;BME280;40618;51.166;10.322;2023-05-16T09:09:28;97478.16;;;9.55;67.24
26865;BME280;40618;51.166;10.322;2023-05-16T09:11:55;97474.75;;;9.53;68.28
26865;BME280;40618;51.166;10.322;2023-05-16T09:14:20;97473.13;;;9.48;68.38
26865;BME280;40618;51.166;10.322;2023-05-16T09:17:02;97474.88;;;9.48;67.95
26865;BME280;40618;51.166;10.322;2023-05-16T09:19:42;97479.50;;;9.37;67.60
26865;BME280;40618;51.166;10.322;2023-05-16T09:22:10;97476.19;;;9.30;67.78
26865;BME280;40618;51.166;10.322;2023-05-16T09:24:44;97483.44;;;9.15;67.94
26865;BME280;40618;51.166;10.322;2023-05-16T09:27:11;97477.38;;;9.17;67.75
26865;BME280;40618;51.166;10.322;2023-05-16T09:29:49;97479.84;;;9.23;68.28
26865;BME280;40618;51.166;10.322;2023-05-16T09:32:16;97490.75;;;9.34;67.66
26865;BME280;40618;51.166;10.322;2023-05-16T09:34:44;97484.53;;;9.41;68.13
26865;BME280;40618;51.166;10.322;2023-05-16T09:37:16;97487.91;;;9.45;68.33
26865;BME280;40618;51.166;10.322;2023-05-16T09:39:47;97483.44;;;9.52;67.48
26865;BME280;40618;51.166;10.322;2023-05-16T09:42:15;97484.06;;;9.60;67.59
26865;BME280;40618;51.166;10.322;2023-05-16T09:44:49;97479.56;;;9.68;67.09
26865;BME280;40618;51.166;10.322;2023-05-16T09:47:17;97478.41;;;9.78;67.07
26865;BME280;40618;51.166;10.322;2023-05-16T09:49:44;97475.50;;;9.91;67.66
26865;BME280;40618;51.166;10.322;2023-05-16T09:52:12;97477.03;;;9.98;67.14
26865;BME280;40618;51.166;10.322;2023-05-16T09:54:38;97481.94;;;10.07;67.01
26865;BME280;40618;51.166;10.322;2023-05-16T09:57:05;97475.88;;;10.08;66.32
26865;BME280;40618;51.166;10.322;2023-05-16T09:59:35;97479.91;;;10.19;66.45
26865;BME280;40618;51.166;10.322;2023-05-16T10:02:04;97471.84;;;10.29;66.26
26865;BME280;40618;51.166;10.322;2023-05-16T10:04:35;97477.44;;;10.45;66.37
26865;BME280;40618;51.166;10.322;2023-05-16T10:07:02;97467.72;;;10.54;66.36
26865;BME280;40618;51.166;10.322;2023-05-16T10:09:31;97465.22;;;10.50;65.60
26865;BME280;40618;51.166;10.322;2023-05-16T10:12:00;97467.19;;;10.72;66.28
26865;BME280;40618;51.166;10.322;2023-05-16T10:14:36;97457.03;;;10.93;65.58
26865;BME280;40618;51.166;10.322;2023-05-16T10:17:05;97457.50;;;11.06;65.19
26865;BME280;40618;51.166;10.322;2023-05-16T10:19:35;97461.94;;;11.02;64.91
26865;BME280;40618;51.166;10.322;2023-05-16T10:22:04;97462.97;;;10.96;64.95
26865;BME280;40618;51.166;10.322;2023-05-16T10:27:32;97460.94;;;11.06;63.57
26865;BME280;40618;51.166;10.322;2023-05-16T10:29:58;97464.34;;;11.35;63.73
26865;BME280;40618;51.166;10.322;2023-05-16T10:32:26;97469.16;;;11.46;63.10
26865;BME280;40618;51.166;10.322;2023-05-16T10:34:53;97461.75;;;11.35;62.10
26865;BME280;40618;51.166;10.322;2023-05-16T10:37:21;97470.88;;;11.20;62.35
26865;BME280;40618;51.166;10.322;2023-05-16T10:39:48;97465.03;;;11.40;62.77
26865;BME280;40618;51.166;10.322;2023-05-16T10:42:14;97477.47;;;11.56;62.73
26865;BME280;40618;51.166;10.322;2023-05-16T10:44:42;97480.34;;;11.73;61.97
26865;BME280;40618;51.166;10.322;2023-05-16T10:47:08;97473.97;;;11.82;61.62
26865;BME280;40618;51.166;10.322;2023-05-16T10:49:34;97474.50;;;11.92;61.80
26865;BME280;40618;51.166;10.322;2023-05-16T10:54:58;97480.28;;;12.25;61.37
26865;BME280;40618;51.166;10.322;2023-05-16T10:57:28;97481.19;;;12.24;61.18
26865;BME280;40618;51.166;10.322;2023-05-16T10:59:56;97479.34;;;12.28;61.34
26865;BME280;40618;51.166;10.322;2023-05-16T11:02:30;97482.00;;;12.26;60.59
26865;BME280;40618;51.166;10.322;2023-05-16T11:04:59;97491.81;;;12.18;60.28
26865;BME280;40618;51.166;10.322;2023-05-16T11:07:31;97479.16;;;12.09;59.87
26865;BME280;40618;51.166;10.322;2023-05-16T11:15:17;97500.09;;;11.77;59.99
26865;BME280;40618;51.166;10.322;2023-05-16T11:17:44;97484.31;;;11.83;59.43
26865;BME280;40618;51.166;10.322;2023-05-16T11:20:30;97474.06;;;12.06;59.55
26865;BME280;40618;51.166;10.322;2023-05-16T11:23:17;97466.72;;;12.41;59.39
26865;BME280;40618;51.166;10.322;2023-05-16T11:25:49;97482.19;;;12.44;59.36
26865;BME280;40618;51.166;10.322;2023-05-16T11:28:18;97488.00;;;12.50;59.21
26865;BME280;40618;51.166;10.322;2023-05-16T11:30:47;97506.75;;;12.59;58.97
26865;BME280;40618;51.166;10.322;2023-05-16T11:33:15;97497.09;;;12.62;58.56
26865;BME280;40618;51.166;10.322;2023-05-16T11:35:41;97493.72;;;12.60;58.22
26865;BME280;40618;51.166;10.322;2023-05-16T11:38:14;97484.09;;;12.62;57.98
26865;BME280;40618;51.166;10.322;2023-05-16T11:40:43;97492.25;;;12.53;58.05
26865;BME280;40618;51.166;10.322;2023-05-16T11:43:17;97496.81;;;12.70;57.96
26865;BME280;40618;51.166;10.322;2023-05-16T11:45:43;97487.88;;;12.99;58.31
26865;BME280;40618;51.166;10.322;2023-05-16T11:48:09;97488.97;;;13.16;57.65
26865;BME280;40618;51.166;10.322;2023-05-16T11:50:35;97492.47;;;13.15;57.22
26865;BME280;40618;51.166;10.322;2023-05-16T11:53:01;97504.34;;;13.00;57.21
26865;BME280;40618;51.166;10.322;2023-05-16T11:55:28;97515.84;;;12.93;56.83
26865;BME280;40618;51.166;10.322;2023-05-16T11:57:57;97504.50;;;12.95;56.59
26865;BME280;40618;51.166;10.322;2023-05-16T12:00:24;97509.94;;;12.89;56.71
26865;BME280;40618;51.166;10.322;2023-05-16T12:02:52;97507.69;;;12.80;56.52
26865;BME280;40618;51.166;10.322;2023-05-16T12:05:20;97521.16;;;12.67;56.16
26865;BME280;40618;51.166;10.322;2023-05-16T12:07:51;97504.38;;;12.76;56.93
26865;BME280;40618;51.166;10.322;2023-05-16T12:10:20;97506.13;;;12.98;55.92
26865;BME280;40618;51.166;10.322;2023-05-16T12:12:48;97507.00;;;13.20;55.86
26865;BME280;40618;51.166;10.322;2023-05-16T12:15:18;97506.75;;;13.27;55.58
26865;BME280;40618;51.166;10.322;2023-05-16T12:17:45;97525.81;;;13.27;55.47
26865;BME280;40618;51.166;10.322;2023-05-16T12:20:12;97520.06;;;13.19;55.50
26865;BME280;40618;51.166;10.322;2023-05-16T12:22:41;97517.63;;;13.14;55.17
26865;BME280;40618;51.166;10.322;2023-05-16T12:27:45;97528.63;;;12.75;54.80
26865;BME280;40618;51.166;10.322;2023-05-16T12:30:11;97525.16;;;12.76;55.14
26865;BME280;40618;51.166;10.322;2023-05-16T12:32:37;97516.78;;;12.92;55.22
26865;BME280;40618;51.166;10.322;2023-05-16T12:35:03;97514.88;;;13.19;54.84
26865;BME280;40618;51.166;10.322;2023-05-16T12:37:29;97504.63;;;13.36;54.83
26865;BME280;40618;51.166;10.322;2023-05-16T12:40:00;97491.66;;;13.57;54.54
26865;BME280;40618;51.166;10.322;2023-05-16T12:42:28;97497.47;;;13.64;54.32
26865;BME280;40618;51.166;10.322;2023-05-16T12:44:55;97488.38;;;13.74;54.12
26865;BME280;40618;51.166;10.322;2023-05-16T12:47:21;97491.09;;;13.71;53.47
26865;BME280;40618;51.166;10.322;2023-05-16T12:49:47;97493.72;;;13.71;53.58
26865;BME280;40618;51.166;10.322;2023-05-16T12:52:19;97506.28;;;13.60;52.82
26865;BME280;40618;51.166;10.322;2023-05-16T12:54:45;97504.63;;;13.59;53.30
26865;BME280;40618;51.166;10.322;2023-05-16T12:57:12;97509.13;;;13.76;53.05
26865;BME280;40618;51.166;10.322;2023-05-16T12:59:38;97501.03;;;13.82;52.90
26865;BME280;40618;51.166;10.322;2023-05-16T13:02:04;97500.94;;;13.85;53.15
26865;BME280;40618;51.166;10.322;2023-05-16T13:04:30;97500.72;;;13.90;52.93
26865;BME280;40618;51.166;10.322;2023-05-16T13:06:56;97505.78;;;13.93;53.01
26865;BME280;40618;51.166;10.322;2023-05-16T13:09:22;97525.91;;;14.10;52.70
26865;BME280;40618;51.166;10.322;2023-05-16T13:11:49;97515.81;;;14.02;52.34
26865;BME280;40618;51.166;10.322;2023-05-16T13:14:17;97511.25;;;14.07;52.49